createdAt,value
2023-01-31T00:00:50.711Z,982.89
2023-01-31T00:01:50.614Z,982.86
2023-01-31T00:02:50.532Z,982.90
2023-01-31T00:03:50.446Z,982.90
2023-01-31T00:04:50.354Z,982.89
2023-01-31T00:05:50.272Z,982.84
2023-01-31T00:06:50.186Z,982.82
2023-01-31T00:07:50.102Z,982.85
2023-01-31T00:08:50.017Z,982.84
2023-01-31T00:09:49.931Z,982.81
2023-01-31T00:10:49.846Z,982.77
2023-01-31T00:11:49.757Z,982.86
2023-01-31T00:12:49.675Z,982.74
2023-01-31T00:13:49.591Z,982.82
2023-01-31T00:14:49.513Z,982.81
2023-01-31T00:15:49.448Z,982.84
2023-01-31T00:16:49.331Z,982.83
2023-01-31T00:17:49.248Z,982.83
2023-01-31T00:18:49.188Z,982.81
2023-01-31T00:19:49.089Z,982.84
2023-01-31T00:20:48.991Z,982.86
2023-01-31T00:21:48.909Z,982.86
2023-01-31T00:22:48.826Z,982.92
2023-01-31T00:23:48.742Z,982.96
2023-01-31T00:24:48.646Z,982.93
2023-01-31T00:25:48.563Z,982.91
2023-01-31T00:26:48.596Z,982.87
2023-01-31T00:27:48.390Z,982.94
2023-01-31T00:28:48.307Z,982.96
2023-01-31T00:29:48.221Z,982.91
2023-01-31T00:30:48.136Z,982.98
2023-01-31T00:31:48.151Z,982.98
2023-01-31T00:32:47.963Z,982.99
2023-01-31T00:33:47.887Z,983.05
2023-01-31T00:34:47.804Z,983.04
2023-01-31T00:35:47.714Z,983.07
2023-01-31T00:36:47.627Z,983.13
2023-01-31T00:37:47.537Z,983.08
2023-01-31T00:38:47.457Z,983.10
2023-01-31T00:39:47.366Z,983.08
2023-01-31T00:40:47.282Z,983.08
2023-01-31T00:41:47.202Z,983.08
2023-01-31T00:42:47.108Z,983.08
2023-01-31T00:43:47.028Z,983.11
2023-01-31T00:44:46.940Z,983.07
2023-01-31T00:45:46.861Z,983.08
2023-01-31T00:46:46.848Z,983.05
2023-01-31T00:47:46.684Z,983.08
2023-01-31T00:48:46.602Z,983.01
2023-01-31T00:49:46.511Z,983.09
2023-01-31T00:50:46.428Z,983.06
2023-01-31T00:51:46.340Z,983.06
2023-01-31T00:52:46.298Z,983.05
2023-01-31T00:53:46.173Z,983.05
2023-01-31T00:54:46.086Z,983.08
2023-01-31T00:55:45.996Z,983.05
2023-01-31T00:56:45.911Z,983.04
2023-01-31T00:57:45.829Z,983.06
2023-01-31T00:58:45.740Z,983.11
2023-01-31T00:59:45.657Z,983.15
2023-01-31T01:00:45.646Z,983.16
2023-01-31T01:01:45.487Z,983.14
2023-01-31T01:02:45.400Z,983.20
2023-01-31T01:03:45.320Z,983.20
2023-01-31T01:04:45.226Z,983.20
2023-01-31T01:05:45.149Z,983.18
2023-01-31T01:06:45.064Z,983.15
2023-01-31T01:07:44.972Z,983.17
2023-01-31T01:08:44.882Z,983.13
2023-01-31T01:09:44.807Z,983.10
2023-01-31T01:10:44.721Z,983.09
2023-01-31T01:11:44.636Z,983.16
2023-01-31T01:12:44.549Z,983.13
2023-01-31T01:13:44.465Z,983.12
2023-01-31T01:14:44.379Z,983.11
2023-01-31T01:15:44.287Z,983.11
2023-01-31T01:16:44.216Z,983.12
2023-01-31T01:17:44.114Z,983.14
2023-01-31T01:18:44.029Z,983.12
2023-01-31T01:19:43.948Z,983.17
2023-01-31T01:20:43.861Z,983.17
2023-01-31T01:21:43.772Z,983.18
2023-01-31T01:22:43.693Z,983.18
2023-01-31T01:23:43.623Z,983.19
2023-01-31T01:24:43.520Z,983.17
2023-01-31T01:25:43.448Z,983.19
2023-01-31T01:26:43.396Z,983.23
2023-01-31T01:27:43.275Z,983.18
2023-01-31T01:28:43.176Z,983.14
2023-01-31T01:29:43.101Z,983.13
2023-01-31T01:30:43.005Z,983.16
2023-01-31T01:31:43.000Z,983.12
2023-01-31T01:32:42.832Z,983.07
2023-01-31T01:33:42.752Z,983.05
2023-01-31T01:34:42.662Z,983.02
2023-01-31T01:35:42.582Z,982.99
2023-01-31T01:36:42.490Z,983.01
2023-01-31T01:37:42.412Z,982.99
2023-01-31T01:38:42.411Z,983.08
2023-01-31T01:39:42.236Z,983.05
2023-01-31T01:40:42.155Z,983.09
2023-01-31T01:41:42.065Z,983.08
2023-01-31T01:42:41.979Z,983.09
2023-01-31T01:43:41.904Z,983.09
2023-01-31T01:44:41.812Z,983.10
2023-01-31T01:45:41.790Z,983.14
2023-01-31T01:46:41.636Z,983.12
2023-01-31T01:47:41.554Z,983.16
2023-01-31T01:48:41.470Z,983.13
2023-01-31T01:49:41.380Z,983.16
2023-01-31T01:50:41.300Z,983.16
2023-01-31T01:51:41.217Z,983.16
2023-01-31T01:52:41.125Z,983.15
2023-01-31T01:53:41.043Z,983.11
2023-01-31T01:54:40.961Z,983.06
2023-01-31T01:55:40.870Z,983.03
2023-01-31T01:56:40.782Z,983.00
2023-01-31T01:57:40.696Z,983.02
2023-01-31T01:58:40.613Z,982.98
2023-01-31T01:59:40.520Z,983.02
2023-01-31T02:00:40.451Z,983.00
2023-01-31T02:01:40.360Z,983.00
2023-01-31T02:02:40.266Z,983.03
2023-01-31T02:03:40.183Z,983.00
2023-01-31T02:04:40.098Z,983.06
2023-01-31T02:05:40.013Z,983.04
2023-01-31T02:06:39.933Z,983.04
2023-01-31T02:07:39.843Z,983.03
2023-01-31T02:08:39.755Z,983.03
2023-01-31T02:09:39.667Z,983.07
2023-01-31T02:10:39.591Z,983.03
2023-01-31T02:11:39.496Z,983.08
2023-01-31T02:12:39.409Z,983.08
2023-01-31T02:13:39.322Z,983.08
2023-01-31T02:14:39.244Z,983.11
2023-01-31T02:15:39.173Z,983.11
2023-01-31T02:16:39.100Z,983.10
2023-01-31T02:17:38.983Z,983.11
2023-01-31T02:18:38.906Z,983.13
2023-01-31T02:19:38.814Z,983.15
2023-01-31T02:20:38.733Z,983.10
2023-01-31T02:21:38.641Z,983.17
2023-01-31T02:22:38.566Z,983.14
2023-01-31T02:23:38.472Z,983.18
2023-01-31T02:24:38.383Z,983.16
2023-01-31T02:25:38.300Z,983.21
2023-01-31T02:26:38.243Z,983.22
2023-01-31T02:27:38.124Z,983.23
2023-01-31T02:28:38.041Z,983.20
2023-01-31T02:29:37.960Z,983.21
2023-01-31T02:30:37.924Z,983.25
2023-01-31T02:31:37.806Z,983.22
2023-01-31T02:32:37.699Z,983.24
2023-01-31T02:33:37.619Z,983.28
2023-01-31T02:34:37.537Z,983.30
2023-01-31T02:35:37.438Z,983.27
2023-01-31T02:36:37.363Z,983.29
2023-01-31T02:37:37.273Z,983.30
2023-01-31T02:38:37.189Z,983.31
2023-01-31T02:39:37.095Z,983.29
2023-01-31T02:40:37.012Z,983.30
2023-01-31T02:41:36.934Z,983.29
2023-01-31T02:42:36.858Z,983.29
2023-01-31T02:43:36.802Z,983.29
2023-01-31T02:44:36.739Z,983.27
2023-01-31T02:45:36.624Z,983.24
2023-01-31T02:46:36.784Z,983.19
2023-01-31T02:47:36.813Z,983.26
2023-01-31T02:48:36.649Z,983.22
2023-01-31T02:49:36.781Z,983.22
2023-01-31T02:50:36.764Z,983.25
2023-01-31T02:51:36.258Z,983.19
2023-01-31T02:52:35.993Z,983.24
2023-01-31T02:53:35.900Z,983.21
2023-01-31T02:54:35.815Z,983.22
2023-01-31T02:55:35.740Z,983.23
2023-01-31T02:56:35.647Z,983.28
2023-01-31T02:57:35.559Z,983.28
2023-01-31T02:58:35.488Z,983.25
2023-01-31T02:59:35.387Z,983.24
2023-01-31T03:00:35.302Z,983.24
2023-01-31T03:01:35.248Z,983.26
2023-01-31T03:02:35.157Z,983.23
2023-01-31T03:03:35.050Z,983.24
2023-01-31T03:04:34.959Z,983.20
2023-01-31T03:05:34.868Z,983.20
2023-01-31T03:06:34.802Z,983.25
2023-01-31T03:07:34.701Z,983.30
2023-01-31T03:08:34.617Z,983.36
2023-01-31T03:09:34.537Z,983.33
2023-01-31T03:10:34.443Z,983.37
2023-01-31T03:11:34.372Z,983.41
2023-01-31T03:12:34.271Z,983.37
2023-01-31T03:13:34.183Z,983.38
2023-01-31T03:14:34.124Z,983.35
2023-01-31T03:15:34.007Z,983.32
2023-01-31T03:16:33.940Z,983.33
2023-01-31T03:17:33.839Z,983.34
2023-01-31T03:18:33.763Z,983.38
2023-01-31T03:19:33.676Z,983.43
2023-01-31T03:20:33.584Z,983.39
2023-01-31T03:21:33.496Z,983.41
2023-01-31T03:22:33.412Z,983.43
2023-01-31T03:23:33.325Z,983.43
2023-01-31T03:24:33.240Z,983.48
2023-01-31T03:25:33.158Z,983.49
2023-01-31T03:26:33.095Z,983.47
2023-01-31T03:27:32.981Z,983.50
2023-01-31T03:28:32.934Z,983.59
2023-01-31T03:29:32.811Z,983.60
2023-01-31T03:30:32.917Z,983.61
2023-01-31T03:31:32.927Z,983.68
2023-01-31T03:32:32.635Z,983.65
2023-01-31T03:33:32.729Z,983.66
2023-01-31T03:34:32.633Z,983.69
2023-01-31T03:35:32.616Z,983.72
2023-01-31T03:36:32.631Z,983.76
2023-01-31T03:37:32.426Z,983.79
2023-01-31T03:38:32.626Z,983.85
2023-01-31T03:39:32.590Z,983.85
2023-01-31T03:40:31.877Z,983.83
2023-01-31T03:41:31.784Z,983.87
2023-01-31T03:42:31.721Z,983.89
2023-01-31T03:43:31.608Z,983.84
2023-01-31T03:44:31.542Z,983.81
2023-01-31T03:45:31.441Z,983.84
2023-01-31T03:46:31.419Z,983.85
2023-01-31T03:47:31.263Z,983.86
2023-01-31T03:48:31.177Z,983.91
2023-01-31T03:49:31.095Z,983.88
2023-01-31T03:50:31.021Z,983.87
2023-01-31T03:51:30.926Z,983.88
2023-01-31T03:52:30.838Z,983.94
2023-01-31T03:53:30.747Z,983.92
2023-01-31T03:54:30.668Z,983.93
2023-01-31T03:55:30.578Z,983.91
2023-01-31T03:56:30.497Z,983.91
2023-01-31T03:57:30.405Z,983.97
2023-01-31T03:58:30.327Z,983.98
2023-01-31T03:59:30.238Z,984.01
2023-01-31T04:00:30.160Z,984.04
2023-01-31T04:01:30.082Z,984.05
2023-01-31T04:02:29.999Z,984.11
2023-01-31T04:03:29.889Z,984.08
2023-01-31T04:04:29.827Z,984.10
2023-01-31T04:05:29.720Z,984.19
2023-01-31T04:06:29.645Z,984.17
2023-01-31T04:07:29.549Z,984.18
2023-01-31T04:08:29.466Z,984.17
2023-01-31T04:09:29.378Z,984.22
2023-01-31T04:10:29.300Z,984.22
2023-01-31T04:11:29.208Z,984.25
2023-01-31T04:12:29.134Z,984.27
2023-01-31T04:13:29.032Z,984.26
2023-01-31T04:14:28.947Z,984.25
2023-01-31T04:15:28.862Z,984.25
2023-01-31T04:16:28.779Z,984.21
2023-01-31T04:17:28.687Z,984.29
2023-01-31T04:18:28.631Z,984.28
2023-01-31T04:19:28.527Z,984.31
2023-01-31T04:20:28.438Z,984.38
2023-01-31T04:21:28.357Z,984.36
2023-01-31T04:22:28.266Z,984.34
2023-01-31T04:23:28.178Z,984.34
2023-01-31T04:24:28.096Z,984.39
2023-01-31T04:25:28.031Z,984.41
2023-01-31T04:26:27.966Z,984.44
2023-01-31T04:27:27.855Z,984.43
2023-01-31T04:28:27.772Z,984.38
2023-01-31T04:29:27.662Z,984.39
2023-01-31T04:30:27.582Z,984.38
2023-01-31T04:31:27.549Z,984.45
2023-01-31T04:32:27.412Z,984.42
2023-01-31T04:33:27.319Z,984.45
2023-01-31T04:34:27.252Z,984.45
2023-01-31T04:35:27.145Z,984.50
2023-01-31T04:36:27.065Z,984.45
2023-01-31T04:37:27.008Z,984.45
2023-01-31T04:38:26.897Z,984.51
2023-01-31T04:39:26.805Z,984.54
2023-01-31T04:40:26.721Z,984.53
2023-01-31T04:41:26.635Z,984.47
2023-01-31T04:42:26.552Z,984.45
2023-01-31T04:43:26.466Z,984.41
2023-01-31T04:44:26.387Z,984.39
2023-01-31T04:45:26.300Z,984.39
2023-01-31T04:46:26.218Z,984.36
2023-01-31T04:47:26.123Z,984.35
2023-01-31T04:48:26.036Z,984.30
2023-01-31T04:49:25.945Z,984.37
2023-01-31T04:50:25.871Z,984.39
2023-01-31T04:51:25.776Z,984.39
2023-01-31T04:52:25.692Z,984.44
2023-01-31T04:53:25.605Z,984.39
2023-01-31T04:54:25.521Z,984.34
2023-01-31T04:55:25.432Z,984.31
2023-01-31T04:56:25.350Z,984.30
2023-01-31T04:57:25.273Z,984.30
2023-01-31T04:58:25.200Z,984.34
2023-01-31T04:59:25.104Z,984.31
2023-01-31T05:00:25.003Z,984.30
2023-01-31T05:01:24.921Z,984.22
2023-01-31T05:02:24.849Z,984.19
2023-01-31T05:03:24.756Z,984.22
2023-01-31T05:04:24.665Z,984.21
2023-01-31T05:05:24.573Z,984.21
2023-01-31T05:06:24.498Z,984.23
2023-01-31T05:07:24.407Z,984.21
2023-01-31T05:08:24.337Z,984.22
2023-01-31T05:09:24.236Z,984.22
2023-01-31T05:10:24.156Z,984.17
2023-01-31T05:11:24.062Z,984.18
2023-01-31T05:12:23.976Z,984.09
2023-01-31T05:13:23.892Z,984.14
2023-01-31T05:14:23.814Z,984.02
2023-01-31T05:15:23.723Z,984.03
2023-01-31T05:16:23.670Z,983.97
2023-01-31T05:17:23.551Z,983.95
2023-01-31T05:18:23.468Z,984.02
2023-01-31T05:19:23.393Z,984.01
2023-01-31T05:20:23.291Z,984.04
2023-01-31T05:21:23.209Z,984.08
2023-01-31T05:22:23.124Z,984.05
2023-01-31T05:23:23.048Z,984.08
2023-01-31T05:24:22.952Z,984.08
2023-01-31T05:25:23.091Z,984.10
2023-01-31T05:26:22.868Z,984.11
2023-01-31T05:27:22.694Z,984.14
2023-01-31T05:28:22.613Z,984.16
2023-01-31T05:29:22.531Z,984.16
2023-01-31T05:30:22.438Z,984.10
2023-01-31T05:31:22.437Z,984.12
2023-01-31T05:32:22.279Z,984.11
2023-01-31T05:33:22.180Z,984.09
2023-01-31T05:34:22.093Z,984.13
2023-01-31T05:35:22.475Z,984.12
2023-01-31T05:36:21.924Z,984.09
2023-01-31T05:37:21.845Z,984.10
2023-01-31T05:38:21.759Z,984.11
2023-01-31T05:39:21.663Z,984.08
2023-01-31T05:40:21.578Z,984.07
2023-01-31T05:41:21.502Z,984.08
2023-01-31T05:42:21.405Z,984.11
2023-01-31T05:43:21.333Z,984.13
2023-01-31T05:44:21.236Z,984.15
2023-01-31T05:45:21.452Z,984.17
2023-01-31T05:46:21.069Z,984.15
2023-01-31T05:47:20.980Z,984.17
2023-01-31T05:48:20.901Z,984.18
2023-01-31T05:49:20.815Z,984.17
2023-01-31T05:50:20.732Z,984.13
2023-01-31T05:51:20.635Z,984.10
2023-01-31T05:52:20.568Z,984.11
2023-01-31T05:53:20.497Z,984.17
2023-01-31T05:54:20.389Z,984.21
2023-01-31T05:55:20.677Z,984.27
2023-01-31T05:56:20.211Z,984.31
2023-01-31T05:57:20.132Z,984.28
2023-01-31T05:58:20.047Z,984.27
2023-01-31T05:59:19.949Z,984.29
2023-01-31T06:00:19.868Z,984.29
2023-01-31T06:01:22.059Z,984.31
2023-01-31T06:02:19.710Z,984.32
2023-01-31T06:03:19.652Z,984.36
2023-01-31T06:04:19.527Z,984.38
2023-01-31T06:05:19.832Z,984.36
2023-01-31T06:06:19.357Z,984.37
2023-01-31T06:07:19.271Z,984.38
2023-01-31T06:08:19.181Z,984.40
2023-01-31T06:09:19.097Z,984.45
2023-01-31T06:10:20.984Z,984.45
2023-01-31T06:11:18.928Z,984.47
2023-01-31T06:12:18.960Z,984.48
2023-01-31T06:13:18.751Z,984.50
2023-01-31T06:14:18.666Z,984.48
2023-01-31T06:15:19.129Z,984.44
2023-01-31T06:16:18.568Z,984.46
2023-01-31T06:17:18.413Z,984.49
2023-01-31T06:18:18.346Z,984.47
2023-01-31T06:19:18.254Z,984.48
2023-01-31T06:20:18.169Z,984.52
2023-01-31T06:21:18.074Z,984.51
2023-01-31T06:22:18.070Z,984.52
2023-01-31T06:23:17.904Z,984.52
2023-01-31T06:24:17.831Z,984.53
2023-01-31T06:25:17.787Z,984.54
2023-01-31T06:26:17.681Z,984.57
2023-01-31T06:27:17.556Z,984.56
2023-01-31T06:28:17.465Z,984.57
2023-01-31T06:29:17.387Z,984.52
2023-01-31T06:30:17.296Z,984.58
2023-01-31T06:31:17.398Z,984.54
2023-01-31T06:32:17.125Z,984.53
2023-01-31T06:33:17.044Z,984.57
2023-01-31T06:34:16.960Z,984.57
2023-01-31T06:35:16.882Z,984.55
2023-01-31T06:36:19.291Z,984.50
2023-01-31T06:37:16.702Z,984.49
2023-01-31T06:38:16.628Z,984.50
2023-01-31T06:39:16.531Z,984.55
2023-01-31T06:40:16.447Z,984.53
2023-01-31T06:41:16.359Z,984.51
2023-01-31T06:42:16.274Z,984.58
2023-01-31T06:43:16.186Z,984.58
2023-01-31T06:44:16.103Z,984.53
2023-01-31T06:45:16.013Z,984.50
2023-01-31T06:46:15.982Z,984.54
2023-01-31T06:47:15.855Z,984.50
2023-01-31T06:48:15.762Z,984.53
2023-01-31T06:49:15.678Z,984.53
2023-01-31T06:50:15.583Z,984.55
2023-01-31T06:51:15.500Z,984.58
2023-01-31T06:52:15.425Z,984.51
2023-01-31T06:53:15.331Z,984.54
2023-01-31T06:54:15.242Z,984.56
2023-01-31T06:55:15.162Z,984.52
2023-01-31T06:56:15.075Z,984.59
2023-01-31T06:57:14.990Z,984.56
2023-01-31T06:58:14.908Z,984.54
2023-01-31T06:59:14.819Z,984.57
2023-01-31T07:00:14.735Z,984.56
2023-01-31T07:01:14.742Z,984.53
2023-01-31T07:02:14.563Z,984.57
2023-01-31T07:03:14.476Z,984.53
2023-01-31T07:04:14.396Z,984.54
2023-01-31T07:05:14.299Z,984.57
2023-01-31T07:06:14.228Z,984.56
2023-01-31T07:07:14.132Z,984.55
2023-01-31T07:08:14.045Z,984.57
2023-01-31T07:09:13.967Z,984.62
2023-01-31T07:10:13.887Z,984.67
2023-01-31T07:11:13.801Z,984.66
2023-01-31T07:12:13.718Z,984.68
2023-01-31T07:13:13.625Z,984.66
2023-01-31T07:14:13.550Z,984.59
2023-01-31T07:15:13.443Z,984.57
2023-01-31T07:16:13.387Z,984.57
2023-01-31T07:17:13.281Z,984.54
2023-01-31T07:18:13.204Z,984.54
2023-01-31T07:19:13.103Z,984.55
2023-01-31T07:20:13.029Z,984.53
2023-01-31T07:21:12.946Z,984.56
2023-01-31T07:22:12.849Z,984.58
2023-01-31T07:23:12.767Z,984.53
2023-01-31T07:24:12.678Z,984.56
2023-01-31T07:25:12.608Z,984.58
2023-01-31T07:26:12.542Z,984.53
2023-01-31T07:27:12.438Z,984.54
2023-01-31T07:28:12.540Z,984.55
2023-01-31T07:29:12.253Z,984.55
2023-01-31T07:30:12.175Z,984.59
2023-01-31T07:31:12.214Z,984.59
2023-01-31T07:32:12.002Z,984.59
2023-01-31T07:33:11.913Z,984.56
2023-01-31T07:34:11.819Z,984.58
2023-01-31T07:35:11.739Z,984.54
2023-01-31T07:36:11.669Z,984.49
2023-01-31T07:37:11.561Z,984.52
2023-01-31T07:38:11.662Z,984.56
2023-01-31T07:39:11.396Z,984.57
2023-01-31T07:40:11.311Z,984.52
2023-01-31T07:41:11.219Z,984.58
2023-01-31T07:42:11.134Z,984.61
2023-01-31T07:43:11.049Z,984.64
2023-01-31T07:44:10.965Z,984.64
2023-01-31T07:45:22.368Z,984.66
2023-01-31T07:46:10.922Z,984.62
2023-01-31T07:47:10.714Z,984.70
2023-01-31T07:48:10.619Z,984.71
2023-01-31T07:49:10.540Z,984.75
2023-01-31T07:50:10.453Z,984.77
2023-01-31T07:51:10.364Z,984.77
2023-01-31T07:52:10.282Z,984.75
2023-01-31T07:53:10.201Z,984.80
2023-01-31T07:54:10.106Z,984.84
2023-01-31T07:55:10.021Z,984.88
2023-01-31T07:56:09.943Z,984.88
2023-01-31T07:57:09.847Z,984.87
2023-01-31T07:58:09.761Z,984.90
2023-01-31T07:59:09.676Z,984.94
2023-01-31T08:00:09.595Z,984.96
2023-01-31T08:01:09.635Z,984.99
2023-01-31T08:02:09.426Z,984.99
2023-01-31T08:03:09.347Z,985.01
2023-01-31T08:04:20.546Z,984.99
2023-01-31T08:05:09.218Z,985.01
2023-01-31T08:06:09.081Z,985.06
2023-01-31T08:07:09.000Z,985.06
2023-01-31T08:08:08.915Z,985.12
2023-01-31T08:09:08.827Z,985.11
2023-01-31T08:10:08.741Z,985.13
2023-01-31T08:11:08.668Z,985.17
2023-01-31T08:12:08.571Z,985.17
2023-01-31T08:13:08.769Z,985.15
2023-01-31T08:14:08.404Z,985.11
2023-01-31T08:15:08.333Z,985.11
2023-01-31T08:16:08.231Z,985.11
2023-01-31T08:17:08.479Z,985.13
2023-01-31T08:18:08.312Z,985.11
2023-01-31T08:19:08.339Z,985.13
2023-01-31T08:20:08.246Z,985.11
2023-01-31T08:21:08.157Z,985.09
2023-01-31T08:22:07.936Z,985.10
2023-01-31T08:23:07.636Z,985.11
2023-01-31T08:24:07.774Z,985.16
2023-01-31T08:25:07.471Z,985.14
2023-01-31T08:26:07.387Z,985.08
2023-01-31T08:27:07.298Z,985.11
2023-01-31T08:28:07.211Z,985.08
2023-01-31T08:29:07.136Z,985.10
2023-01-31T08:30:07.042Z,985.08
2023-01-31T08:31:09.325Z,985.11
2023-01-31T08:32:06.885Z,985.04
2023-01-31T08:33:06.789Z,985.05
2023-01-31T08:34:06.708Z,985.05
2023-01-31T08:35:06.624Z,985.08
2023-01-31T08:36:06.535Z,985.17
2023-01-31T08:37:06.506Z,985.15
2023-01-31T08:38:16.069Z,985.23
2023-01-31T08:39:06.302Z,985.21
2023-01-31T08:40:06.193Z,985.27
2023-01-31T08:41:06.110Z,985.27
2023-01-31T08:42:06.021Z,985.28
2023-01-31T08:43:05.937Z,985.28
2023-01-31T08:44:05.849Z,985.26
2023-01-31T08:45:05.770Z,985.31
2023-01-31T08:46:05.767Z,985.29
2023-01-31T08:47:05.595Z,985.34
2023-01-31T08:48:05.513Z,985.26
2023-01-31T08:49:05.433Z,985.31
2023-01-31T08:50:06.519Z,985.34
2023-01-31T08:51:05.253Z,985.32
2023-01-31T08:52:05.178Z,985.36
2023-01-31T08:53:05.090Z,985.30
2023-01-31T08:54:05.009Z,985.31
2023-01-31T08:55:04.926Z,985.32
2023-01-31T08:56:06.922Z,985.34
2023-01-31T08:57:04.754Z,985.34
2023-01-31T08:58:04.667Z,985.35
2023-01-31T08:59:04.588Z,985.31
2023-01-31T09:00:04.499Z,985.30
2023-01-31T09:01:04.420Z,985.31
2023-01-31T09:02:04.354Z,985.31
2023-01-31T09:03:04.335Z,985.33
2023-01-31T09:04:04.156Z,985.39
2023-01-31T09:05:04.073Z,985.39
2023-01-31T09:06:04.001Z,985.36
2023-01-31T09:07:03.901Z,985.35
2023-01-31T09:08:03.812Z,985.29
2023-01-31T09:09:03.729Z,985.22
2023-01-31T09:10:03.646Z,985.29
2023-01-31T09:11:03.556Z,985.21
2023-01-31T09:12:03.472Z,985.23
2023-01-31T09:13:03.391Z,985.09
2023-01-31T09:14:03.324Z,985.11
2023-01-31T09:15:03.231Z,985.11
2023-01-31T09:16:03.132Z,985.04
2023-01-31T09:17:03.125Z,985.03
2023-01-31T09:18:02.959Z,985.08
2023-01-31T09:19:02.883Z,985.11
2023-01-31T09:20:02.801Z,985.10
2023-01-31T09:21:02.711Z,985.09
2023-01-31T09:22:02.626Z,985.17
2023-01-31T09:23:02.689Z,985.12
2023-01-31T09:24:02.484Z,985.13
2023-01-31T09:25:02.377Z,985.13
2023-01-31T09:26:02.354Z,985.06
2023-01-31T09:27:02.204Z,985.05
2023-01-31T09:28:02.112Z,985.07
2023-01-31T09:29:02.026Z,985.13
2023-01-31T09:30:01.943Z,985.11
2023-01-31T09:31:01.936Z,985.14
2023-01-31T09:32:01.810Z,985.09
2023-01-31T09:33:01.690Z,985.15
2023-01-31T09:34:01.601Z,985.12
2023-01-31T09:35:01.560Z,985.14
2023-01-31T09:36:01.435Z,985.11
2023-01-31T09:37:01.345Z,985.09
2023-01-31T09:38:01.277Z,985.12
2023-01-31T09:39:01.202Z,985.20
2023-01-31T09:40:01.097Z,985.12
2023-01-31T09:41:01.026Z,985.09
2023-01-31T09:42:00.926Z,985.09
2023-01-31T09:43:00.846Z,985.10
2023-01-31T09:44:00.752Z,985.08
2023-01-31T09:45:00.697Z,985.06
2023-01-31T09:46:00.583Z,985.03
2023-01-31T09:47:00.535Z,985.04
2023-01-31T09:48:00.420Z,984.97
2023-01-31T09:49:00.337Z,984.97
2023-01-31T09:50:00.243Z,984.95
2023-01-31T09:51:00.156Z,984.90
2023-01-31T09:52:00.140Z,984.89
2023-01-31T09:52:59.999Z,984.87
2023-01-31T09:53:59.914Z,984.87
2023-01-31T09:54:59.822Z,984.86
2023-01-31T09:55:59.733Z,984.89
2023-01-31T09:56:59.656Z,984.91
2023-01-31T09:57:59.573Z,984.87
2023-01-31T09:58:59.480Z,984.89
2023-01-31T09:59:59.480Z,984.94
2023-01-31T10:00:59.362Z,984.90
2023-01-31T10:01:59.381Z,984.92
2023-01-31T10:02:59.143Z,984.88
2023-01-31T10:03:59.117Z,984.93
2023-01-31T10:04:58.995Z,984.94
2023-01-31T10:05:58.887Z,984.95
2023-01-31T10:06:58.823Z,984.95
2023-01-31T10:07:58.719Z,984.94
2023-01-31T10:08:58.632Z,984.93
2023-01-31T10:09:58.558Z,984.96
2023-01-31T10:10:58.480Z,984.91
2023-01-31T10:11:58.380Z,984.96
2023-01-31T10:12:58.300Z,984.84
2023-01-31T10:13:58.213Z,984.90
2023-01-31T10:14:58.131Z,984.89
2023-01-31T10:15:58.046Z,984.86
2023-01-31T10:16:57.958Z,984.92
2023-01-31T10:17:57.903Z,984.84
2023-01-31T10:18:57.835Z,984.78
2023-01-31T10:19:57.702Z,984.81
2023-01-31T10:20:57.623Z,984.85
2023-01-31T10:21:57.539Z,984.81
2023-01-31T10:22:57.457Z,984.86
2023-01-31T10:23:57.366Z,984.84
2023-01-31T10:24:57.283Z,984.84
2023-01-31T10:25:57.205Z,984.89
2023-01-31T10:26:57.199Z,984.82
2023-01-31T10:27:57.035Z,984.85
2023-01-31T10:28:56.951Z,984.85
2023-01-31T10:29:56.866Z,984.85
2023-01-31T10:30:56.796Z,984.83
2023-01-31T10:31:56.754Z,984.83
2023-01-31T10:32:56.601Z,984.84
2023-01-31T10:33:56.519Z,984.84
2023-01-31T10:34:56.434Z,984.82
2023-01-31T10:35:56.367Z,984.81
2023-01-31T10:36:56.270Z,984.75
2023-01-31T10:37:56.182Z,984.78
2023-01-31T10:38:56.092Z,984.78
2023-01-31T10:39:56.015Z,984.67
2023-01-31T10:40:55.936Z,984.57
2023-01-31T10:41:55.844Z,984.56
2023-01-31T10:42:55.753Z,984.55
2023-01-31T10:43:55.670Z,984.56
2023-01-31T10:44:55.596Z,984.58
2023-01-31T10:45:55.557Z,984.45
2023-01-31T10:46:55.419Z,984.52
2023-01-31T10:47:55.336Z,984.61
2023-01-31T10:48:55.253Z,984.53
2023-01-31T10:49:55.168Z,984.55
2023-01-31T10:50:55.095Z,984.52
2023-01-31T10:51:54.996Z,984.58
2023-01-31T10:52:54.911Z,984.64
2023-01-31T10:53:54.829Z,984.62
2023-01-31T10:54:54.746Z,984.68
2023-01-31T10:55:54.660Z,984.63
2023-01-31T10:56:54.572Z,984.67
2023-01-31T10:57:54.543Z,984.59
2023-01-31T10:58:54.427Z,984.62
2023-01-31T10:59:54.329Z,984.60
2023-01-31T11:00:54.253Z,984.55
2023-01-31T11:01:54.277Z,984.57
2023-01-31T11:02:54.096Z,984.49
2023-01-31T11:03:53.999Z,984.50
2023-01-31T11:04:53.910Z,984.42
2023-01-31T11:05:53.823Z,984.39
2023-01-31T11:06:53.731Z,984.36
2023-01-31T11:07:53.647Z,984.33
2023-01-31T11:08:53.564Z,984.40
2023-01-31T11:09:53.478Z,984.33
2023-01-31T11:10:53.390Z,984.27
2023-01-31T11:11:53.311Z,984.34
2023-01-31T11:12:53.236Z,984.30
2023-01-31T11:13:53.138Z,984.37
2023-01-31T11:14:54.059Z,984.32
2023-01-31T11:15:52.982Z,984.35
2023-01-31T11:16:52.945Z,984.47
2023-01-31T11:17:52.824Z,984.33
2023-01-31T11:18:52.713Z,984.37
2023-01-31T11:19:52.642Z,984.42
2023-01-31T11:20:52.548Z,984.36
2023-01-31T11:21:52.466Z,984.37
2023-01-31T11:22:52.382Z,984.35
2023-01-31T11:23:52.299Z,984.23
2023-01-31T11:24:52.208Z,984.29
2023-01-31T11:25:52.133Z,984.22
2023-01-31T11:26:52.042Z,984.20
2023-01-31T11:27:51.953Z,984.15
2023-01-31T11:28:51.870Z,984.14
2023-01-31T11:29:51.791Z,984.10
2023-01-31T11:30:51.746Z,984.13
2023-01-31T11:31:51.649Z,984.13
2023-01-31T11:32:51.558Z,984.09
2023-01-31T11:33:51.483Z,984.09
2023-01-31T11:34:51.390Z,984.07
2023-01-31T11:35:51.399Z,983.98
2023-01-31T11:36:51.192Z,983.90
2023-01-31T11:37:53.685Z,983.81
2023-01-31T11:38:51.033Z,983.69
2023-01-31T11:39:50.940Z,983.76
2023-01-31T11:40:50.870Z,983.72
2023-01-31T11:41:50.771Z,983.74
2023-01-31T11:42:50.685Z,983.75
2023-01-31T11:43:50.611Z,983.60
2023-01-31T11:44:50.526Z,983.66
2023-01-31T11:45:50.463Z,983.61
2023-01-31T11:46:50.353Z,983.62
2023-01-31T11:47:50.271Z,983.62
2023-01-31T11:48:50.180Z,983.63
2023-01-31T11:49:50.098Z,983.62
2023-01-31T11:50:50.015Z,983.64
2023-01-31T11:51:49.933Z,983.60
2023-01-31T11:52:49.844Z,983.62
2023-01-31T11:53:49.774Z,983.68
2023-01-31T11:54:49.708Z,983.60
2023-01-31T11:55:49.603Z,983.66
2023-01-31T11:56:49.509Z,983.56
2023-01-31T11:57:49.424Z,983.58
2023-01-31T11:58:49.340Z,983.54
2023-01-31T11:59:49.252Z,983.52
2023-01-31T12:00:49.169Z,983.58
2023-01-31T12:01:49.092Z,983.57
2023-01-31T12:02:48.999Z,983.53
2023-01-31T12:04:01.897Z,983.55
2023-01-31T12:04:48.837Z,983.47
2023-01-31T12:05:48.749Z,983.48
2023-01-31T12:06:48.661Z,983.27
2023-01-31T12:07:48.591Z,983.36
2023-01-31T12:08:48.495Z,983.30
2023-01-31T12:09:48.414Z,983.33
2023-01-31T12:10:48.329Z,983.32
2023-01-31T12:11:48.257Z,983.29
2023-01-31T12:12:48.162Z,983.29
2023-01-31T12:13:48.089Z,983.31
2023-01-31T12:14:47.992Z,983.27
2023-01-31T12:15:47.944Z,983.33
2023-01-31T12:16:48.078Z,983.19
2023-01-31T12:17:47.777Z,983.28
2023-01-31T12:18:47.650Z,983.23
2023-01-31T12:19:47.577Z,983.18
2023-01-31T12:20:47.499Z,983.17
2023-01-31T12:21:47.401Z,983.11
2023-01-31T12:22:47.316Z,983.07
2023-01-31T12:23:48.567Z,983.03
2023-01-31T12:24:47.153Z,983.14
2023-01-31T12:25:47.068Z,983.13
2023-01-31T12:26:47.016Z,983.11
2023-01-31T12:27:46.899Z,983.15